createdAt,value
2019-01-23T00:00:58.964Z,44.50
2019-01-23T00:01:58.961Z,45.40
2019-01-23T00:02:58.943Z,44.50
2019-01-23T00:03:58.976Z,45.80
2019-01-23T00:04:58.934Z,45.50
2019-01-23T00:05:58.909Z,45.90
2019-01-23T00:06:58.921Z,45.60
2019-01-23T00:07:58.902Z,45.70
2019-01-23T00:08:58.878Z,45.50
2019-01-23T00:09:58.901Z,48.70
2019-01-23T00:10:58.857Z,46.30
2019-01-23T00:11:58.849Z,45.40
2019-01-23T00:12:58.858Z,46.70
2019-01-23T00:13:58.830Z,47.00
2019-01-23T00:14:59.531Z,45.80
2019-01-23T00:15:58.806Z,47.30
2019-01-23T00:16:58.795Z,46.30
2019-01-23T00:17:58.793Z,46.60
2019-01-23T00:18:58.785Z,45.70
2019-01-23T00:19:58.789Z,46.10
2019-01-23T00:20:58.755Z,48.30
2019-01-23T00:21:58.768Z,43.90
2019-01-23T00:22:58.728Z,44.70
2019-01-23T00:23:58.759Z,47.00
2019-01-23T00:24:58.711Z,46.20
2019-01-23T00:25:58.728Z,45.10
2019-01-23T00:26:58.691Z,46.20
2019-01-23T00:27:58.703Z,46.30
2019-01-23T00:28:58.669Z,45.70
2019-01-23T00:29:58.662Z,44.50
2019-01-23T00:30:58.680Z,45.80
2019-01-23T00:31:58.636Z,45.20
2019-01-23T00:32:58.621Z,44.50
2019-01-23T00:33:58.612Z,44.80
2019-01-23T00:34:58.606Z,45.80
2019-01-23T00:35:58.623Z,48.20
2019-01-23T00:36:58.607Z,43.10
2019-01-23T00:37:58.570Z,45.50
2019-01-23T00:38:58.565Z,46.70
2019-01-23T00:39:58.556Z,44.10
2019-01-23T00:40:58.543Z,43.90
2019-01-23T00:41:58.574Z,45.20
2019-01-23T00:42:58.517Z,45.40
2019-01-23T00:43:58.529Z,44.40
2019-01-23T00:44:58.495Z,47.30
2019-01-23T00:45:58.500Z,47.20
2019-01-23T00:46:58.508Z,47.50
2019-01-23T00:47:58.464Z,46.00
2019-01-23T00:48:58.456Z,45.70
2019-01-23T00:49:58.446Z,45.70
2019-01-23T00:50:58.431Z,46.20
2019-01-23T00:51:58.431Z,48.40
2019-01-23T00:52:58.461Z,48.80
2019-01-23T00:53:58.422Z,47.30
2019-01-23T00:54:58.395Z,47.80
2019-01-23T00:55:58.402Z,48.60
2019-01-23T00:56:58.386Z,47.20
2019-01-23T00:57:58.387Z,47.40
2019-01-23T00:58:58.388Z,50.40
2019-01-23T00:59:58.338Z,47.00
2019-01-23T01:00:58.326Z,45.90
2019-01-23T01:01:58.330Z,47.20
2019-01-23T01:02:58.333Z,45.70
2019-01-23T01:03:58.320Z,49.00
2019-01-23T01:04:58.286Z,45.30
2019-01-23T01:05:58.274Z,46.00
2019-01-23T01:06:58.268Z,46.90
2019-01-23T01:07:58.255Z,46.60
2019-01-23T01:08:58.270Z,45.40
2019-01-23T01:09:58.231Z,48.40
2019-01-23T01:10:58.224Z,44.50
2019-01-23T01:11:58.219Z,45.90
2019-01-23T01:12:58.196Z,46.20
2019-01-23T01:13:58.205Z,46.40
2019-01-23T01:14:58.185Z,46.40
2019-01-23T01:15:58.196Z,47.70
2019-01-23T01:16:58.170Z,44.40
2019-01-23T01:17:58.147Z,46.90
2019-01-23T01:18:58.138Z,47.00
2019-01-23T01:19:58.163Z,45.00
2019-01-23T01:20:58.114Z,48.10
2019-01-23T01:21:58.107Z,45.50
2019-01-23T01:22:58.122Z,47.20
2019-01-23T01:23:58.079Z,44.30
2019-01-23T01:24:58.092Z,44.40
2019-01-23T01:25:58.059Z,47.60
2019-01-23T01:26:58.054Z,42.60
2019-01-23T01:27:58.044Z,46.50
2019-01-23T01:28:58.048Z,45.40
2019-01-23T01:29:58.052Z,45.30
2019-01-23T01:30:58.007Z,47.30
2019-01-23T01:31:58.000Z,45.30
2019-01-23T01:32:57.986Z,46.30
2019-01-23T01:33:57.976Z,45.70
2019-01-23T01:34:57.970Z,44.30
2019-01-23T01:35:58.013Z,43.70
2019-01-23T01:36:57.942Z,46.30
2019-01-23T01:37:57.934Z,46.80
2019-01-23T01:38:57.922Z,46.50
2019-01-23T01:39:57.910Z,45.60
2019-01-23T01:40:57.919Z,45.80
2019-01-23T01:41:57.931Z,44.50
2019-01-23T01:42:57.878Z,43.30
2019-01-23T01:43:57.866Z,45.30
2019-01-23T01:44:57.856Z,46.50
2019-01-23T01:45:57.865Z,44.70
2019-01-23T01:46:57.834Z,44.60
2019-01-23T01:47:57.834Z,46.90
2019-01-23T01:48:57.817Z,44.80
2019-01-23T01:49:57.811Z,47.30
2019-01-23T01:50:57.814Z,44.90
2019-01-23T01:51:57.801Z,45.20
2019-01-23T01:52:57.773Z,45.90
2019-01-23T01:53:57.770Z,45.20
2019-01-23T01:54:57.763Z,45.90
2019-01-23T01:55:57.738Z,45.50
2019-01-23T01:56:57.745Z,46.00
2019-01-23T01:57:57.725Z,45.90
2019-01-23T01:59:02.775Z,45.00
2019-01-23T01:59:58.696Z,45.50
2019-01-23T02:00:57.689Z,44.80
2019-01-23T02:01:57.713Z,46.70
2019-01-23T02:02:57.689Z,45.00
2019-01-23T02:03:57.681Z,46.90
2019-01-23T02:04:57.660Z,45.60
2019-01-23T02:05:57.631Z,45.00
2019-01-23T02:06:57.623Z,43.60
2019-01-23T02:07:57.639Z,44.10
2019-01-23T02:08:57.601Z,46.40
2019-01-23T02:09:57.608Z,47.10
2019-01-23T02:10:57.589Z,46.30
2019-01-23T02:11:57.568Z,48.70
2019-01-23T02:12:57.580Z,45.40
2019-01-23T02:13:57.547Z,45.80
2019-01-23T02:14:57.540Z,46.20
2019-01-23T02:15:57.529Z,45.80
2019-01-23T02:16:57.519Z,45.80
2019-01-23T02:17:57.537Z,44.30
2019-01-23T02:18:57.493Z,44.80
2019-01-23T02:19:57.491Z,46.90
2019-01-23T02:20:57.474Z,46.90
2019-01-23T02:21:57.468Z,48.60
2019-01-23T02:22:57.471Z,48.90
2019-01-23T02:23:57.457Z,46.40
2019-01-23T02:24:57.434Z,46.30
2019-01-23T02:25:57.432Z,46.80
2019-01-23T02:26:57.409Z,46.30
2019-01-23T02:27:57.398Z,47.20
2019-01-23T02:28:57.434Z,45.90
2019-01-23T02:29:57.386Z,48.00
2019-01-23T02:30:57.370Z,47.80
2019-01-23T02:31:57.370Z,44.20
2019-01-23T02:32:57.353Z,47.20
2019-01-23T02:33:57.352Z,46.20
2019-01-23T02:34:57.341Z,46.50
2019-01-23T02:35:57.316Z,44.10
2019-01-23T02:36:57.309Z,46.80
2019-01-23T02:37:57.291Z,47.40
2019-01-23T02:38:57.283Z,46.40
2019-01-23T02:39:57.302Z,46.80
2019-01-23T02:40:57.268Z,47.70
2019-01-23T02:41:57.257Z,47.40
2019-01-23T02:42:57.240Z,47.60
2019-01-23T02:43:57.234Z,47.80
2019-01-23T02:44:57.254Z,48.20
2019-01-23T02:45:57.211Z,44.70
2019-01-23T02:46:57.204Z,46.70
2019-01-23T02:47:57.192Z,46.20
2019-01-23T02:48:57.178Z,46.80
2019-01-23T02:49:57.185Z,47.90
2019-01-23T02:50:57.172Z,47.20
2019-01-23T02:51:57.150Z,47.90
2019-01-23T02:52:57.141Z,48.70
2019-01-23T02:53:57.122Z,49.00
2019-01-23T02:54:57.115Z,49.00
2019-01-23T02:55:57.118Z,48.30
2019-01-23T02:56:57.108Z,46.60
2019-01-23T02:57:57.083Z,47.10
2019-01-23T02:58:57.068Z,45.10
2019-01-23T02:59:57.073Z,47.70
2019-01-23T03:00:57.078Z,47.40
2019-01-23T03:01:57.037Z,46.70
2019-01-23T03:02:57.028Z,45.50
2019-01-23T03:03:57.019Z,45.90
2019-01-23T03:04:57.003Z,45.80
2019-01-23T03:05:56.996Z,47.50
2019-01-23T03:06:57.068Z,47.20
2019-01-23T03:07:56.994Z,46.50
2019-01-23T03:08:56.970Z,45.40
2019-01-23T03:09:56.982Z,47.30
2019-01-23T03:10:56.947Z,47.30
2019-01-23T03:11:56.955Z,49.20
2019-01-23T03:12:56.929Z,48.30
2019-01-23T03:13:56.909Z,47.10
2019-01-23T03:14:56.918Z,47.50
2019-01-23T03:15:56.908Z,46.00
2019-01-23T03:16:56.907Z,48.70
2019-01-23T03:17:56.873Z,49.50
2019-01-23T03:18:56.877Z,47.80
2019-01-23T03:19:56.879Z,48.00
2019-01-23T03:20:56.840Z,48.00
2019-01-23T03:21:56.829Z,47.70
2019-01-23T03:22:56.835Z,47.60
2019-01-23T03:23:56.804Z,48.40
2019-01-23T03:24:56.792Z,50.90
2019-01-23T03:25:56.783Z,48.10
2019-01-23T03:26:56.792Z,48.30
2019-01-23T03:27:56.785Z,47.50
2019-01-23T03:28:56.756Z,45.70
2019-01-23T03:29:56.745Z,47.60
2019-01-23T03:30:56.736Z,48.10
2019-01-23T03:31:56.722Z,50.40
2019-01-23T03:32:56.738Z,47.70
2019-01-23T03:33:56.710Z,49.50
2019-01-23T03:34:56.690Z,48.40
2019-01-23T03:35:56.677Z,49.80
2019-01-23T03:36:56.664Z,46.90
2019-01-23T03:37:56.655Z,47.80
2019-01-23T03:38:56.666Z,47.30
2019-01-23T03:39:56.638Z,49.60
2019-01-23T03:40:56.619Z,48.90
2019-01-23T03:41:56.624Z,47.60
2019-01-23T03:42:56.601Z,47.50
2019-01-23T03:43:56.638Z,49.30
2019-01-23T03:44:56.645Z,50.30
2019-01-23T03:45:56.572Z,48.40
2019-01-23T03:46:56.580Z,50.20
2019-01-23T03:47:56.559Z,50.80
2019-01-23T03:48:56.589Z,49.80
2019-01-23T03:49:56.529Z,51.80
2019-01-23T03:50:56.512Z,51.00
2019-01-23T03:51:56.545Z,50.30
2019-01-23T03:52:56.493Z,50.40
2019-01-23T03:53:56.488Z,49.40
2019-01-23T03:54:56.504Z,50.10
2019-01-23T03:55:56.466Z,51.10
2019-01-23T03:56:56.455Z,50.00
2019-01-23T03:57:56.439Z,50.50
2019-01-23T03:58:56.429Z,50.30
2019-01-23T03:59:56.444Z,49.70
2019-01-23T04:00:56.410Z,52.00
2019-01-23T04:01:56.407Z,48.20
2019-01-23T04:02:56.398Z,50.60
2019-01-23T04:03:56.377Z,51.20
2019-01-23T04:04:56.398Z,50.00
2019-01-23T04:05:56.355Z,51.10
2019-01-23T04:06:56.348Z,51.00
2019-01-23T04:07:56.339Z,50.50
2019-01-23T04:08:56.334Z,51.50
2019-01-23T04:09:56.341Z,54.20
2019-01-23T04:10:56.308Z,51.50
2019-01-23T04:11:56.302Z,50.90
2019-01-23T04:12:56.314Z,52.90
2019-01-23T04:13:56.272Z,52.10
2019-01-23T04:14:56.285Z,51.30
2019-01-23T04:15:56.276Z,51.70
2019-01-23T04:16:56.236Z,52.50
2019-01-23T04:17:56.268Z,52.90
2019-01-23T04:18:56.231Z,55.40
2019-01-23T04:19:56.210Z,51.90
2019-01-23T04:20:56.229Z,55.00
2019-01-23T04:21:56.187Z,55.50
2019-01-23T04:22:56.183Z,53.00
2019-01-23T04:23:56.168Z,54.30
2019-01-23T04:24:56.156Z,53.90
2019-01-23T04:25:56.180Z,54.80
2019-01-23T04:26:56.146Z,55.30
2019-01-23T04:27:56.120Z,53.20
2019-01-23T04:28:56.125Z,53.70
2019-01-23T04:29:56.097Z,55.30
2019-01-23T04:30:56.087Z,54.80
2019-01-23T04:31:56.106Z,52.10
2019-01-23T04:32:56.080Z,58.00
2019-01-23T04:33:56.060Z,58.10
2019-01-23T04:34:56.059Z,55.80
2019-01-23T04:35:56.038Z,54.20
2019-01-23T04:36:56.060Z,58.00
2019-01-23T04:37:56.023Z,57.60
2019-01-23T04:38:56.020Z,55.40
2019-01-23T04:39:55.998Z,55.10
2019-01-23T04:40:55.981Z,56.60
2019-01-23T04:41:55.981Z,56.10
2019-01-23T04:42:55.982Z,57.80
2019-01-23T04:43:55.953Z,57.10
2019-01-23T04:44:55.941Z,58.20
2019-01-23T04:45:55.944Z,57.90
2019-01-23T04:46:55.920Z,54.80
2019-01-23T04:47:55.928Z,56.70
2019-01-23T04:48:55.898Z,54.20
2019-01-23T04:49:55.899Z,55.70
2019-01-23T04:50:55.875Z,57.40
2019-01-23T04:51:55.863Z,56.50
2019-01-23T04:52:55.877Z,57.40
2019-01-23T04:53:55.841Z,57.90
2019-01-23T04:54:55.832Z,57.90
2019-01-23T04:55:55.820Z,57.60
2019-01-23T04:56:55.813Z,57.00
2019-01-23T04:57:55.809Z,57.40
2019-01-23T04:58:55.816Z,58.40
2019-01-23T04:59:55.780Z,55.70
2019-01-23T05:00:55.770Z,55.20
2019-01-23T05:01:55.759Z,57.80
2019-01-23T05:02:55.745Z,58.80
2019-01-23T05:03:55.755Z,57.90
2019-01-23T05:04:55.763Z,55.50
2019-01-23T05:05:55.744Z,56.60
2019-01-23T05:06:55.708Z,57.20
2019-01-23T05:07:55.701Z,58.30
2019-01-23T05:08:55.683Z,58.90
2019-01-23T05:09:55.686Z,56.30
2019-01-23T05:10:55.686Z,57.30
2019-01-23T05:11:55.652Z,55.70
2019-01-23T05:12:55.641Z,59.40
2019-01-23T05:13:55.641Z,58.60
2019-01-23T05:14:55.627Z,56.60
2019-01-23T05:15:55.631Z,57.40
2019-01-23T05:16:55.628Z,56.50
2019-01-23T05:17:55.632Z,57.10
2019-01-23T05:18:55.573Z,58.70
2019-01-23T05:19:55.571Z,56.30
2019-01-23T05:20:55.555Z,57.60
2019-01-23T05:21:55.564Z,57.90
2019-01-23T05:22:55.560Z,58.30
2019-01-23T05:23:55.522Z,55.50
2019-01-23T05:24:55.513Z,57.00
2019-01-23T05:25:55.503Z,56.30
2019-01-23T05:26:55.518Z,58.30
2019-01-23T05:27:55.490Z,58.50
2019-01-23T05:28:55.474Z,54.60
2019-01-23T05:29:55.466Z,55.50
2019-01-23T05:30:55.488Z,57.30
2019-01-23T05:31:55.435Z,56.00
2019-01-23T05:32:55.433Z,56.30
2019-01-23T05:33:55.414Z,56.20
2019-01-23T05:34:55.408Z,58.60
2019-01-23T05:35:55.428Z,57.10
2019-01-23T05:36:55.406Z,56.70
2019-01-23T05:37:55.379Z,55.90
2019-01-23T05:38:55.366Z,57.30
2019-01-23T05:39:55.351Z,56.20
2019-01-23T05:40:55.372Z,59.40
2019-01-23T05:41:55.340Z,59.00
2019-01-23T05:42:55.325Z,56.30
2019-01-23T05:43:55.306Z,58.40
2019-01-23T05:44:55.302Z,56.70
2019-01-23T05:45:55.317Z,57.10
2019-01-23T05:46:55.327Z,57.80
2019-01-23T05:47:55.265Z,57.90
2019-01-23T05:48:55.269Z,57.90
2019-01-23T05:49:55.261Z,56.00
2019-01-23T05:50:55.234Z,57.80
2019-01-23T05:51:55.243Z,61.30
2019-01-23T05:52:55.222Z,57.90
2019-01-23T05:53:55.201Z,57.10
2019-01-23T05:54:55.201Z,57.60
2019-01-23T05:55:55.179Z,58.00
2019-01-23T05:56:55.190Z,57.10
2019-01-23T05:57:55.188Z,60.40
2019-01-23T05:58:55.148Z,59.30
2019-01-23T06:00:02.075Z,57.90
2019-01-23T06:00:56.138Z,61.90
2019-01-23T06:01:55.116Z,57.10
2019-01-23T06:02:55.146Z,58.60
2019-01-23T06:03:55.102Z,57.70
2019-01-23T06:04:55.094Z,59.60
2019-01-23T06:05:55.081Z,59.50
2019-01-23T06:06:55.074Z,57.50
2019-01-23T06:07:55.082Z,58.40
2019-01-23T06:08:55.047Z,58.40
2019-01-23T06:09:55.032Z,58.90
2019-01-23T06:10:55.035Z,55.00
2019-01-23T06:11:55.010Z,60.30
2019-01-23T06:12:54.998Z,57.60
2019-01-23T06:13:55.015Z,56.80
2019-01-23T06:14:55.004Z,56.50
2019-01-23T06:15:54.971Z,57.30
2019-01-23T06:16:54.959Z,56.30
2019-01-23T06:17:54.945Z,61.40
2019-01-23T06:18:54.949Z,58.10
2019-01-23T06:19:54.964Z,57.70
2019-01-23T06:20:55.691Z,58.00
2019-01-23T06:21:54.902Z,55.70
2019-01-23T06:22:54.898Z,56.50
2019-01-23T06:23:54.912Z,60.90
2019-01-23T06:24:54.881Z,55.50
2019-01-23T06:25:54.859Z,60.70
2019-01-23T06:26:54.860Z,58.40
2019-01-23T06:27:54.852Z,58.40
2019-01-23T06:28:54.861Z,58.00
2019-01-23T06:29:54.846Z,56.30
2019-01-23T06:30:54.814Z,62.10
2019-01-23T06:31:54.803Z,62.20
2019-01-23T06:32:54.793Z,56.90
2019-01-23T06:33:54.785Z,57.40
2019-01-23T06:34:54.780Z,57.30
2019-01-23T06:35:54.755Z,57.70
2019-01-23T06:36:54.754Z,63.80
2019-01-23T06:37:54.805Z,59.60
2019-01-23T06:38:54.727Z,61.60
2019-01-23T06:39:54.712Z,59.50
2019-01-23T06:40:54.729Z,59.70
2019-01-23T06:41:54.692Z,62.70
2019-01-23T06:42:54.675Z,63.50
2019-01-23T06:43:54.670Z,59.70
2019-01-23T06:44:54.667Z,62.60
2019-01-23T06:45:54.664Z,62.70
2019-01-23T06:46:54.634Z,63.50
2019-01-23T06:47:54.622Z,61.40
2019-01-23T06:48:54.616Z,65.40
2019-01-23T06:49:54.605Z,64.00
2019-01-23T06:50:54.627Z,66.00
2019-01-23T06:51:54.580Z,64.40
2019-01-23T06:52:54.611Z,64.30
2019-01-23T06:53:54.559Z,66.60
2019-01-23T06:54:54.549Z,68.80
2019-01-23T06:55:54.559Z,67.20
2019-01-23T06:56:54.551Z,67.00
2019-01-23T06:57:54.529Z,65.90
2019-01-23T06:58:54.512Z,66.90
2019-01-23T06:59:54.499Z,69.30
2019-01-23T07:00:54.501Z,68.40
2019-01-23T07:01:54.503Z,66.60
2019-01-23T07:02:54.468Z,69.40
2019-01-23T07:03:54.450Z,68.70
2019-01-23T07:04:54.442Z,67.00
2019-01-23T07:05:54.515Z,68.80
2019-01-23T07:06:54.450Z,66.90
2019-01-23T07:07:54.408Z,66.00
2019-01-23T07:08:54.466Z,66.20
2019-01-23T07:09:54.393Z,68.90
2019-01-23T07:10:54.375Z,66.70
2019-01-23T07:11:54.366Z,65.30
2019-01-23T07:12:54.375Z,67.80
2019-01-23T07:13:54.366Z,66.80
2019-01-23T07:14:54.335Z,64.70
2019-01-23T07:15:54.352Z,68.20
2019-01-23T07:16:54.315Z,69.60
2019-01-23T07:17:54.310Z,68.70
2019-01-23T07:18:54.327Z,69.70
2019-01-23T07:19:54.285Z,67.50
2019-01-23T07:20:54.275Z,75.10
2019-01-23T07:21:54.268Z,69.50
2019-01-23T07:22:54.247Z,73.70
2019-01-23T07:23:54.256Z,73.60
2019-01-23T07:24:54.227Z,70.70
2019-01-23T07:25:54.223Z,74.60
2019-01-23T07:26:54.207Z,75.40
2019-01-23T07:27:54.220Z,74.80
2019-01-23T07:28:54.209Z,75.40
2019-01-23T07:29:54.199Z,75.10
2019-01-23T07:30:54.164Z,79.00
2019-01-23T07:31:54.151Z,79.70
2019-01-23T07:32:54.139Z,81.00
2019-01-23T07:33:54.137Z,79.00
2019-01-23T07:34:54.137Z,79.30
2019-01-23T07:35:54.124Z,83.80
2019-01-23T07:36:54.114Z,87.10
2019-01-23T07:37:54.092Z,88.50
2019-01-23T07:38:54.078Z,80.00
2019-01-23T07:39:54.096Z,81.70
2019-01-23T07:40:54.058Z,85.10
2019-01-23T07:41:54.047Z,87.10
2019-01-23T07:42:54.037Z,84.10
2019-01-23T07:43:54.067Z,86.80
2019-01-23T07:44:54.045Z,89.80
2019-01-23T07:45:54.003Z,85.60
2019-01-23T07:46:53.993Z,89.60
2019-01-23T07:47:53.982Z,93.70
2019-01-23T07:48:53.970Z,86.40
2019-01-23T07:49:53.993Z,87.30
2019-01-23T07:50:53.950Z,86.30
2019-01-23T07:51:53.948Z,88.60
2019-01-23T07:52:53.930Z,89.20
2019-01-23T07:53:53.922Z,88.40
2019-01-23T07:54:53.938Z,85.30
2019-01-23T07:55:53.907Z,90.70
2019-01-23T07:56:53.916Z,91.70
2019-01-23T07:57:53.876Z,94.90
2019-01-23T07:58:53.880Z,95.00
2019-01-23T07:59:53.864Z,92.30
2019-01-23T08:00:53.842Z,90.70
2019-01-23T08:01:53.849Z,90.90
2019-01-23T08:02:53.826Z,92.40
2019-01-23T08:03:53.815Z,86.70
2019-01-23T08:04:53.814Z,90.60
2019-01-23T08:05:53.831Z,90.70
2019-01-23T08:06:53.863Z,87.10
2019-01-23T08:07:53.768Z,91.50
2019-01-23T08:08:53.760Z,90.10
2019-01-23T08:10:01.355Z,90.70
2019-01-23T08:10:53.811Z,86.90
2019-01-23T08:11:53.724Z,89.70
2019-01-23T08:12:53.735Z,87.00
2019-01-23T08:13:53.737Z,92.30
2019-01-23T08:14:53.804Z,92.70
2019-01-23T08:15:53.696Z,90.60
2019-01-23T08:16:53.674Z,94.80
2019-01-23T08:17:53.746Z,89.90
2019-01-23T08:18:53.656Z,92.70
2019-01-23T08:19:53.645Z,92.70
2019-01-23T08:20:53.647Z,92.60
2019-01-23T08:21:53.624Z,91.40
2019-01-23T08:22:53.642Z,92.00
2019-01-23T08:23:53.602Z,91.30
2019-01-23T08:24:53.605Z,93.10
2019-01-23T08:25:53.735Z,94.40
2019-01-23T08:26:53.573Z,95.30
2019-01-23T08:27:53.564Z,96.40
2019-01-23T08:28:53.550Z,94.80
2019-01-23T08:29:53.537Z,96.90
2019-01-23T08:30:53.560Z,93.80
2019-01-23T08:31:53.512Z,91.40
2019-01-23T08:32:53.529Z,93.00
2019-01-23T08:33:53.494Z,90.30
2019-01-23T08:34:53.477Z,94.10
2019-01-23T08:35:53.504Z,92.00
2019-01-23T08:36:53.461Z,89.10
2019-01-23T08:37:53.449Z,92.60
2019-01-23T08:38:53.445Z,92.30
2019-01-23T08:39:53.427Z,89.50
2019-01-23T08:40:53.444Z,87.90
2019-01-23T08:41:53.429Z,88.70
2019-01-23T08:42:53.393Z,89.40
2019-01-23T08:43:53.388Z,89.00
2019-01-23T08:44:53.377Z,91.10
2019-01-23T08:45:53.391Z,90.30
2019-01-23T08:46:53.357Z,89.40
2019-01-23T08:47:53.358Z,89.40
2019-01-23T08:48:53.336Z,92.70
2019-01-23T08:49:53.323Z,89.90
2019-01-23T08:50:53.337Z,89.00
2019-01-23T08:51:53.299Z,91.70
2019-01-23T08:52:53.286Z,93.30
2019-01-23T08:53:53.288Z,89.10
2019-01-23T08:54:53.287Z,92.00
2019-01-23T08:55:53.945Z,88.20
2019-01-23T08:56:53.263Z,89.20
2019-01-23T08:57:53.237Z,87.50
2019-01-23T08:58:53.227Z,91.90
2019-01-23T08:59:53.219Z,88.50
2019-01-23T09:00:53.199Z,89.70
2019-01-23T09:01:53.212Z,92.10
2019-01-23T09:02:53.184Z,91.00
2019-01-23T09:03:53.184Z,111.50
2019-01-23T09:04:53.170Z,109.20
2019-01-23T09:05:53.190Z,130.30
2019-01-23T09:06:53.500Z,97.40
2019-01-23T09:07:53.127Z,89.10
2019-01-23T09:08:53.128Z,88.80
2019-01-23T09:09:53.671Z,92.00
2019-01-23T09:10:53.096Z,87.00
2019-01-23T09:11:53.100Z,86.10
2019-01-23T09:12:53.071Z,88.50
2019-01-23T09:13:53.079Z,88.20
2019-01-23T09:14:53.079Z,87.40
2019-01-23T09:15:53.070Z,84.70
2019-01-23T09:16:53.052Z,88.40
2019-01-23T09:17:53.022Z,89.70
2019-01-23T09:18:53.021Z,87.60
2019-01-23T09:19:52.996Z,89.80
2019-01-23T09:20:52.988Z,88.60
2019-01-23T09:21:52.995Z,84.10
2019-01-23T09:22:52.971Z,88.50
2019-01-23T09:23:52.961Z,84.80
2019-01-23T09:24:52.959Z,85.10
2019-01-23T09:25:52.932Z,86.20
2019-01-23T09:26:52.954Z,85.00
2019-01-23T09:27:52.912Z,84.80
2019-01-23T09:28:52.915Z,82.40
2019-01-23T09:29:52.895Z,85.40
2019-01-23T09:30:54.481Z,86.90
2019-01-23T09:31:52.868Z,82.70
2019-01-23T09:32:52.874Z,82.80
2019-01-23T09:33:52.852Z,84.60
2019-01-23T09:34:52.839Z,80.50
2019-01-23T09:35:52.838Z,81.70
2019-01-23T09:36:52.823Z,80.70
2019-01-23T09:37:52.835Z,85.10
2019-01-23T09:38:52.816Z,80.80
2019-01-23T09:39:52.783Z,82.00
2019-01-23T09:40:52.780Z,82.70
2019-01-23T09:41:52.772Z,85.20
2019-01-23T09:42:52.808Z,81.40
2019-01-23T09:43:52.742Z,85.60
2019-01-23T09:44:52.737Z,86.00
2019-01-23T09:45:52.731Z,89.20
2019-01-23T09:46:52.739Z,86.20
2019-01-23T09:47:52.702Z,83.70
2019-01-23T09:48:52.710Z,83.50
2019-01-23T09:49:52.692Z,83.90
2019-01-23T09:50:52.665Z,83.30
2019-01-23T09:51:52.664Z,79.40
2019-01-23T09:52:52.662Z,78.80
2019-01-23T09:53:55.247Z,79.80
2019-01-23T09:54:52.627Z,81.50
2019-01-23T09:55:52.624Z,85.90
2019-01-23T09:56:52.603Z,80.90
2019-01-23T09:57:52.596Z,77.80
2019-01-23T09:58:52.589Z,79.60
2019-01-23T09:59:52.599Z,83.10
2019-01-23T10:00:52.561Z,79.80
2019-01-23T10:01:52.568Z,79.00
2019-01-23T10:02:52.540Z,81.70
2019-01-23T10:03:52.530Z,77.60
2019-01-23T10:04:52.546Z,81.60
2019-01-23T10:05:52.512Z,81.80
2019-01-23T10:06:52.509Z,83.80
2019-01-23T10:07:52.499Z,80.70
2019-01-23T10:08:52.481Z,80.70
2019-01-23T10:09:52.489Z,82.50
2019-01-23T10:10:52.477Z,91.50
2019-01-23T10:11:52.453Z,116.60
2019-01-23T10:12:52.439Z,101.00
2019-01-23T10:13:52.428Z,89.50
2019-01-23T10:14:52.450Z,129.40
2019-01-23T10:15:52.405Z,124.40
2019-01-23T10:16:52.418Z,104.00
2019-01-23T10:17:52.381Z,95.40
2019-01-23T10:18:56.134Z,98.30
2019-01-23T10:19:52.725Z,81.80
2019-01-23T10:20:52.371Z,78.80
2019-01-23T10:21:52.359Z,78.60
2019-01-23T10:22:52.331Z,79.00
2019-01-23T10:23:52.318Z,76.20
2019-01-23T10:24:52.306Z,75.30
2019-01-23T10:25:52.330Z,77.20
2019-01-23T10:26:52.284Z,75.90
2019-01-23T10:27:52.278Z,72.80
2019-01-23T10:28:52.272Z,79.50
2019-01-23T10:29:52.251Z,72.60
2019-01-23T10:30:52.259Z,76.10
2019-01-23T10:31:52.237Z,76.30
2019-01-23T10:32:52.294Z,74.10
2019-01-23T10:33:52.234Z,72.60
2019-01-23T10:34:52.203Z,75.00
2019-01-23T10:35:52.189Z,80.30
2019-01-23T10:36:52.183Z,75.80
2019-01-23T10:37:52.182Z,72.80
2019-01-23T10:38:52.182Z,73.10
2019-01-23T10:39:52.398Z,72.60
2019-01-23T10:40:52.155Z,68.70
2019-01-23T10:41:52.138Z,69.30
2019-01-23T10:42:52.140Z,69.00
2019-01-23T10:43:52.131Z,66.50
2019-01-23T10:44:52.116Z,69.90
2019-01-23T10:45:52.103Z,70.00
2019-01-23T10:46:52.073Z,72.40
2019-01-23T10:47:56.042Z,71.50
2019-01-23T10:48:52.052Z,76.00
2019-01-23T10:49:52.057Z,70.80
2019-01-23T10:50:52.034Z,73.10
2019-01-23T10:51:52.022Z,72.50
2019-01-23T10:52:52.012Z,74.20
2019-01-23T10:53:52.009Z,72.80
2019-01-23T10:54:52.015Z,71.00
2019-01-23T10:55:51.976Z,72.80
2019-01-23T10:56:51.969Z,73.70
2019-01-23T10:57:51.960Z,74.60
2019-01-23T10:58:51.948Z,72.30
2019-01-23T10:59:51.938Z,73.20
2019-01-23T11:00:51.947Z,74.00
2019-01-23T11:01:51.934Z,71.90
2019-01-23T11:02:51.911Z,75.60
2019-01-23T11:03:51.889Z,74.00
2019-01-23T11:04:51.881Z,69.20
2019-01-23T11:05:51.902Z,71.00
2019-01-23T11:06:51.893Z,70.90
2019-01-23T11:07:51.853Z,70.60
2019-01-23T11:08:51.867Z,72.00
2019-01-23T11:09:51.833Z,74.70
2019-01-23T11:10:51.887Z,68.40
2019-01-23T11:11:51.806Z,68.70
2019-01-23T11:12:51.800Z,70.10
2019-01-23T11:13:51.786Z,73.20
2019-01-23T11:14:51.771Z,70.70
2019-01-23T11:15:51.762Z,72.20
2019-01-23T11:16:51.809Z,73.80
2019-01-23T11:17:51.741Z,70.80
2019-01-23T11:18:51.733Z,71.40
2019-01-23T11:19:51.721Z,72.10
2019-01-23T11:20:51.713Z,74.70
2019-01-23T11:21:51.716Z,71.70
2019-01-23T11:22:51.686Z,72.20
2019-01-23T11:23:51.679Z,76.00
2019-01-23T11:24:51.667Z,71.20
2019-01-23T11:25:51.659Z,70.30
2019-01-23T11:26:51.679Z,73.80
2019-01-23T11:27:51.650Z,71.70
2019-01-23T11:28:51.653Z,71.10
2019-01-23T11:29:51.635Z,71.30
2019-01-23T11:30:51.622Z,71.00
2019-01-23T11:31:51.592Z,67.40
2019-01-23T11:32:51.583Z,70.50
2019-01-23T11:33:51.575Z,74.00
2019-01-23T11:34:51.557Z,71.80
2019-01-23T11:35:51.604Z,74.00
2019-01-23T11:36:51.539Z,69.10
2019-01-23T11:37:51.535Z,70.10
2019-01-23T11:38:52.606Z,70.70
2019-01-23T11:39:51.508Z,71.80
2019-01-23T11:40:51.501Z,69.60
2019-01-23T11:41:51.535Z,69.10
2019-01-23T11:42:51.475Z,65.70
2019-01-23T11:43:51.465Z,69.30
2019-01-23T11:44:51.453Z,69.70
2019-01-23T11:45:51.450Z,69.20
2019-01-23T11:46:51.608Z,67.20
2019-01-23T11:47:51.423Z,67.50
2019-01-23T11:48:51.417Z,65.20
2019-01-23T11:49:51.441Z,67.40
2019-01-23T11:50:51.423Z,64.30
2019-01-23T11:51:51.394Z,64.40
2019-01-23T11:52:51.389Z,65.30
2019-01-23T11:53:51.357Z,65.10
2019-01-23T11:54:51.349Z,65.90
2019-01-23T11:55:51.343Z,66.40
2019-01-23T11:56:51.328Z,64.00
2019-01-23T11:57:51.339Z,66.10
2019-01-23T11:58:51.305Z,60.40
2019-01-23T11:59:51.291Z,60.80
2019-01-23T12:00:51.279Z,62.00
2019-01-23T12:01:51.303Z,56.30
2019-01-23T12:02:51.289Z,60.40
2019-01-23T12:03:51.272Z,57.80
2019-01-23T12:04:51.240Z,57.40
2019-01-23T12:05:51.229Z,59.70
2019-01-23T12:06:51.217Z,60.80
2019-01-23T12:07:51.212Z,59.00
2019-01-23T12:08:51.212Z,60.00
2019-01-23T12:09:51.187Z,59.50
2019-01-23T12:10:51.195Z,61.10
2019-01-23T12:11:51.167Z,58.80
2019-01-23T12:12:51.168Z,66.10
2019-01-23T12:13:51.179Z,66.20
2019-01-23T12:14:51.132Z,69.70
2019-01-23T12:15:51.130Z,71.60
2019-01-23T12:16:51.140Z,74.80
2019-01-23T12:17:51.105Z,77.50
2019-01-23T12:18:51.094Z,81.80
2019-01-23T12:19:51.084Z,76.80
2019-01-23T12:20:51.065Z,76.20
2019-01-23T12:21:51.091Z,78.10
2019-01-23T12:22:51.048Z,78.70
2019-01-23T12:23:51.033Z,79.20
2019-01-23T12:24:51.025Z,76.80
2019-01-23T12:25:51.030Z,76.40
2019-01-23T12:26:51.047Z,74.10
2019-01-23T12:27:51.007Z,76.00
2019-01-23T12:28:50.982Z,81.00
2019-01-23T12:29:50.982Z,76.90
2019-01-23T12:30:50.959Z,75.60
2019-01-23T12:31:50.984Z,76.60
2019-01-23T12:32:50.953Z,76.10
2019-01-23T12:33:50.935Z,76.10
2019-01-23T12:34:50.918Z,72.40
2019-01-23T12:35:50.907Z,76.80
2019-01-23T12:36:50.906Z,73.80
2019-01-23T12:37:50.905Z,73.30
2019-01-23T12:38:50.876Z,76.00
2019-01-23T12:39:50.867Z,75.40
2019-01-23T12:40:50.879Z,74.00
2019-01-23T12:41:50.849Z,75.20
2019-01-23T12:42:50.862Z,79.60
2019-01-23T12:43:50.821Z,80.80
2019-01-23T12:44:50.824Z,77.20
2019-01-23T12:45:50.799Z,77.70
2019-01-23T12:46:50.790Z,79.30
2019-01-23T12:47:50.784Z,80.70
2019-01-23T12:48:50.791Z,82.00
2019-01-23T12:49:50.755Z,78.30
2019-01-23T12:50:50.750Z,80.90
2019-01-23T12:51:50.762Z,80.00
2019-01-23T12:52:50.727Z,83.20